Time;durP1;ratioP1;P1;durP2;ratioP2;P2;SDS_P1;SDS_P2;PMS_P1;PMS_P2;Temp;Humidity;BMP_temperature;BMP_pressure;BME280_temperature;BME280_humidity;BME280_pressure;Samples;Min_cycle;Max_cycle;Signal;HPM_P1;HPM_P2
2023/06/14 00:01:55;;;;;;;;;;;;;;;15.77;49.00;97799.59;7363369;19;20470;-73
2023/06/14 00:04:25;;;;;;;;;;;;;;;15.76;49.59;97804.13;7370625;19;19963;-70
2023/06/14 00:06:52;;;;;;;;;;;;;;;15.72;49.61;97808.22;7367257;19;19923;-71
2023/06/14 00:09:19;;;;;;;;;;;;;;;15.79;50.24;97806.38;7376566;19;19915;-73
2023/06/14 00:11:45;;;;;;;;;;;;;;;15.73;50.09;97811.72;7367344;19;19929;-71
2023/06/14 00:14:12;;;;;;;;;;;;;;;15.68;49.39;97804.28;7374862;19;19929;-72
2023/06/14 00:16:42;;;;;;;;;;;;;;;15.65;49.73;97799.34;7373970;19;19926;-70
2023/06/14 00:19:10;;;;;;;;;;;;;;;15.73;48.73;97798.38;7369776;19;19918;-70
2023/06/14 00:21:37;;;;;;;;;;;;;;;15.54;47.76;97794.63;7367314;19;19911;-70
2023/06/14 00:24:04;;;;;;;;;;;;;;;15.74;48.53;97797.34;7365643;19;19919;-70
2023/06/14 00:26:32;;;;;;;;;;;;;;;15.80;50.48;97797.38;7372111;19;19919;-70
2023/06/14 00:28:59;;;;;;;;;;;;;;;15.76;49.99;97798.78;7366302;19;19923;-68
2023/06/14 00:31:25;;;;;;;;;;;;;;;15.72;50.67;97796.75;7367567;19;20348;-70
2023/06/14 00:33:53;;;;;;;;;;;;;;;15.61;50.31;97792.78;7364204;19;19982;-72
2023/06/14 00:36:20;;;;;;;;;;;;;;;15.53;49.35;97798.28;7372748;19;20289;-72
2023/06/14 00:38:46;;;;;;;;;;;;;;;15.59;49.06;97793.00;7366485;19;19918;-71
2023/06/14 00:41:13;;;;;;;;;;;;;;;15.50;49.19;97796.84;7368044;19;19921;-72
2023/06/14 00:43:41;;;;;;;;;;;;;;;15.40;50.01;97801.75;7372534;19;19923;-71
2023/06/14 00:46:08;;;;;;;;;;;;;;;15.35;50.67;97804.22;7369789;19;19986;-71
2023/06/14 00:48:36;;;;;;;;;;;;;;;15.46;49.53;97797.47;7364357;19;19927;-72
2023/06/14 00:51:03;;;;;;;;;;;;;;;15.45;49.87;97806.47;7367258;19;21671;-69
2023/06/14 00:53:33;;;;;;;;;;;;;;;15.25;50.30;97814.41;7368726;19;20340;-68
2023/06/14 00:56:00;;;;;;;;;;;;;;;15.43;50.55;97805.84;7365297;19;19925;-69
2023/06/14 00:58:27;;;;;;;;;;;;;;;15.43;49.26;97798.69;7369927;19;19925;-68
2023/06/14 01:00:54;;;;;;;;;;;;;;;15.23;49.85;97811.94;7367275;19;19922;-71
2023/06/14 01:03:22;;;;;;;;;;;;;;;15.28;49.66;97814.84;7372836;19;20454;-69
2023/06/14 01:05:50;;;;;;;;;;;;;;;15.13;52.15;97798.16;7368905;19;19930;-69
2023/06/14 01:08:22;;;;;;;;;;;;;;;15.36;50.19;97798.66;7371106;19;20011;-68
2023/06/14 01:10:53;;;;;;;;;;;;;;;15.01;50.97;97799.75;7367224;19;19933;-69
2023/06/14 01:13:21;;;;;;;;;;;;;;;15.06;51.60;97806.16;7366349;19;19927;-69
2023/06/14 01:15:48;;;;;;;;;;;;;;;15.22;51.75;97807.66;7366211;19;19937;-68
2023/06/14 01:18:17;;;;;;;;;;;;;;;14.93;52.69;97806.91;7370846;19;19927;-68
2023/06/14 01:20:45;;;;;;;;;;;;;;;14.94;52.10;97805.06;7368547;19;19939;-73
2023/06/14 01:23:15;;;;;;;;;;;;;;;14.86;53.06;97806.03;7370442;19;19922;-67
2023/06/14 01:25:44;;;;;;;;;;;;;;;14.73;52.19;97811.28;7370192;19;20768;-69
2023/06/14 01:28:12;;;;;;;;;;;;;;;14.98;51.79;97803.66;7370389;19;19922;-68
2023/06/14 01:30:42;;;;;;;;;;;;;;;14.96;53.34;97808.34;7365761;19;19923;-69
2023/06/14 01:33:09;;;;;;;;;;;;;;;14.90;53.71;97811.78;7375381;19;19926;-69
2023/06/14 01:35:36;;;;;;;;;;;;;;;14.97;53.23;97809.97;7376654;19;19946;-72
2023/06/14 01:38:02;;;;;;;;;;;;;;;14.94;51.95;97813.03;7375470;19;19922;-69
2023/06/14 01:40:29;;;;;;;;;;;;;;;14.79;53.34;97813.16;7373347;19;19919;-68
2023/06/14 01:42:56;;;;;;;;;;;;;;;14.73;52.99;97808.63;7369082;19;19923;-69
2023/06/14 01:45:22;;;;;;;;;;;;;;;14.75;53.01;97809.25;7379023;19;19929;-69
2023/06/14 01:47:49;;;;;;;;;;;;;;;14.63;54.13;97813.47;7372785;19;19927;-69
2023/06/14 01:50:16;;;;;;;;;;;;;;;14.62;53.64;97811.84;7376071;19;19952;-70
2023/06/14 01:52:44;;;;;;;;;;;;;;;14.61;53.39;97808.38;7374587;19;19925;-71
2023/06/14 01:55:10;;;;;;;;;;;;;;;14.61;53.35;97815.50;7378390;19;20377;-71
2023/06/14 01:57:38;;;;;;;;;;;;;;;14.52;53.41;97817.47;7374339;19;19929;-70
2023/06/14 02:00:08;;;;;;;;;;;;;;;14.37;53.50;97814.09;7370161;19;19986;-71
2023/06/14 02:02:38;;;;;;;;;;;;;;;14.47;53.32;97811.91;7373082;19;19927;-72
2023/06/14 02:05:05;;;;;;;;;;;;;;;14.53;53.31;97819.13;7372911;19;19939;-69
2023/06/14 02:07:33;;;;;;;;;;;;;;;14.55;53.86;97817.13;7377395;19;20393;-72
2023/06/14 02:09:59;;;;;;;;;;;;;;;14.57;53.59;97808.94;7375093;19;19923;-69
2023/06/14 02:12:26;;;;;;;;;;;;;;;14.59;52.66;97806.91;7373756;19;20271;-69
2023/06/14 02:14:54;;;;;;;;;;;;;;;14.58;53.87;97815.91;7370790;19;19922;-70
2023/06/14 02:17:22;;;;;;;;;;;;;;;14.55;52.45;97814.44;7373346;19;20271;-69
2023/06/14 02:19:50;;;;;;;;;;;;;;;14.61;53.49;97811.03;7372556;19;19922;-70
2023/06/14 02:22:17;;;;;;;;;;;;;;;14.61;53.37;97810.19;7370567;19;19926;-70
2023/06/14 02:24:46;;;;;;;;;;;;;;;14.53;52.84;97808.50;7373275;19;19938;-71
2023/06/14 02:27:15;;;;;;;;;;;;;;;14.48;53.71;97810.88;7375926;19;19938;-71
2023/06/14 02:29:43;;;;;;;;;;;;;;;14.51;52.70;97813.19;7371641;19;19942;-69
2023/06/14 02:32:09;;;;;;;;;;;;;;;14.34;52.71;97809.97;7366791;19;19914;-71
2023/06/14 02:34:41;;;;;;;;;;;;;;;14.46;52.98;97813.75;7373337;19;19919;-69
2023/06/14 02:37:08;;;;;;;;;;;;;;;14.48;53.36;97811.72;7373979;19;19926;-70
2023/06/14 02:39:35;;;;;;;;;;;;;;;14.45;51.96;97806.78;7377947;19;19927;-68
2023/06/14 02:42:02;;;;;;;;;;;;;;;14.43;52.97;97811.50;7371966;19;19918;-69
2023/06/14 02:44:29;;;;;;;;;;;;;;;14.35;53.09;97814.28;7378349;19;19990;-68
2023/06/14 02:47:00;;;;;;;;;;;;;;;14.35;51.02;97816.13;7372988;19;19922;-72
2023/06/14 02:49:27;;;;;;;;;;;;;;;14.44;50.50;97814.97;7372339;19;19919;-68
2023/06/14 02:51:54;;;;;;;;;;;;;;;14.38;50.79;97816.56;7369640;19;20006;-68
2023/06/14 02:54:20;;;;;;;;;;;;;;;14.13;51.83;97815.34;7371030;19;19915;-71
2023/06/14 02:56:47;;;;;;;;;;;;;;;14.05;51.98;97817.09;7373158;19;19911;-69
2023/06/14 02:59:14;;;;;;;;;;;;;;;14.08;53.15;97820.41;7352368;19;19929;-70
2023/06/14 03:01:42;;;;;;;;;;;;;;;14.04;53.45;97814.66;7363051;19;19927;-69
2023/06/14 03:04:12;;;;;;;;;;;;;;;14.04;53.95;97814.66;7369877;19;22644;-71
2023/06/14 03:06:43;;;;;;;;;;;;;;;14.03;55.03;97823.63;7371489;19;20402;-72
2023/06/14 03:09:11;;;;;;;;;;;;;;;13.93;54.91;97823.97;7372728;19;19915;-68
2023/06/14 03:11:39;;;;;;;;;;;;;;;13.96;54.59;97815.59;7365118;19;19919;-69
2023/06/14 03:14:08;;;;;;;;;;;;;;;14.11;53.92;97826.16;7369231;19;19922;-68
2023/06/14 03:16:37;;;;;;;;;;;;;;;13.94;55.55;97827.44;7373219;19;19918;-70
2023/06/14 03:19:04;;;;;;;;;;;;;;;13.97;54.30;97825.22;7371839;19;19923;-70
2023/06/14 03:21:32;;;;;;;;;;;;;;;13.83;54.57;97831.44;7368821;19;19923;-71
2023/06/14 03:24:02;;;;;;;;;;;;;;;13.92;55.02;97837.44;7365664;19;19945;-69
2023/06/14 03:26:31;;;;;;;;;;;;;;;13.83;55.97;97837.56;7373424;19;19918;-68
2023/06/14 03:28:59;;;;;;;;;;;;;;;13.92;56.09;97838.25;7367155;19;19926;-69
2023/06/14 03:31:27;;;;;;;;;;;;;;;13.90;55.86;97840.31;7369476;19;19952;-68
2023/06/14 03:33:54;;;;;;;;;;;;;;;13.96;56.17;97836.06;7368507;19;20311;-70
2023/06/14 03:36:22;;;;;;;;;;;;;;;13.89;55.94;97843.97;7373543;19;20597;-67
2023/06/14 03:38:49;;;;;;;;;;;;;;;13.81;55.34;97844.91;7364450;19;19986;-69
2023/06/14 03:41:16;;;;;;;;;;;;;;;13.94;56.12;97838.09;7370703;19;19918;-69
2023/06/14 03:43:43;;;;;;;;;;;;;;;14.05;55.33;97840.22;7371997;19;19951;-70
2023/06/14 03:46:10;;;;;;;;;;;;;;;14.10;54.09;97845.81;7365683;19;19919;-70
2023/06/14 03:48:36;;;;;;;;;;;;;;;14.06;56.32;97839.22;7372141;19;19933;-70
2023/06/14 03:51:03;;;;;;;;;;;;;;;14.22;55.79;97843.47;7363666;19;19922;-68
2023/06/14 03:53:30;;;;;;;;;;;;;;;14.20;54.15;97856.13;7371117;19;19914;-71
2023/06/14 03:55:57;;;;;;;;;;;;;;;14.23;54.62;97847.75;7367920;19;19929;-68
2023/06/14 03:58:31;;;;;;;;;;;;;;;14.25;54.48;97862.50;7371367;19;19937;-68
2023/06/14 04:00:59;;;;;;;;;;;;;;;14.18;56.17;97864.28;7361684;19;19956;-69
2023/06/14 04:03:29;;;;;;;;;;;;;;;14.34;53.49;97863.19;7368561;19;20277;-69
2023/06/14 04:05:59;;;;;;;;;;;;;;;14.37;53.92;97862.81;7368269;19;20440;-71
2023/06/14 04:08:26;;;;;;;;;;;;;;;14.28;55.75;97863.97;7367008;19;19943;-68
2023/06/14 04:10:53;;;;;;;;;;;;;;;14.28;55.68;97866.63;7367917;19;19937;-70
2023/06/14 04:13:20;;;;;;;;;;;;;;;14.25;55.89;97875.00;7371230;19;19915;-67
2023/06/14 04:15:47;;;;;;;;;;;;;;;14.14;56.45;97864.84;7369096;19;19914;-68
2023/06/14 04:18:20;;;;;;;;;;;;;;;14.30;55.57;97871.75;7370276;19;19914;-70
2023/06/14 04:20:50;;;;;;;;;;;;;;;14.30;56.84;97879.72;7370151;19;19918;-69
2023/06/14 04:23:17;;;;;;;;;;;;;;;14.26;56.17;97879.28;7369045;19;19982;-69
2023/06/14 04:25:45;;;;;;;;;;;;;;;14.38;55.12;97879.63;7370424;19;19923;-69
2023/06/14 04:28:12;;;;;;;;;;;;;;;14.45;54.54;97881.28;7364831;19;20678;-68
2023/06/14 04:30:40;;;;;;;;;;;;;;;14.27;55.33;97889.75;7360712;19;19941;-69
2023/06/14 04:33:07;;;;;;;;;;;;;;;14.24;55.77;97891.97;7350318;19;19943;-69
2023/06/14 04:35:35;;;;;;;;;;;;;;;14.23;57.44;97891.13;7370877;19;20601;-69
2023/06/14 04:38:08;;;;;;;;;;;;;;;14.39;56.54;97895.38;7365196;19;19922;-68
2023/06/14 04:40:42;;;;;;;;;;;;;;;14.46;57.96;97904.25;7370392;19;20031;-71
2023/06/14 04:43:12;;;;;;;;;;;;;;;14.61;57.06;97901.53;7368450;19;20680;-69
2023/06/14 04:45:44;;;;;;;;;;;;;;;14.72;56.64;97908.19;7366017;19;20587;-68
2023/06/14 04:48:12;;;;;;;;;;;;;;;14.88;57.22;97910.53;7367304;19;19990;-70
2023/06/14 04:50:40;;;;;;;;;;;;;;;15.03;57.83;97910.41;7371025;19;20377;-69
2023/06/14 04:53:08;;;;;;;;;;;;;;;14.99;56.80;97914.50;7361405;19;21451;-69
2023/06/14 04:55:35;;;;;;;;;;;;;;;15.04;57.12;97911.25;7365167;19;19926;-68
2023/06/14 04:58:04;;;;;;;;;;;;;;;15.02;57.24;97921.28;7369990;19;19923;-69
2023/06/14 05:00:31;;;;;;;;;;;;;;;15.21;57.42;97920.56;7358967;19;20610;-68
2023/06/14 05:02:58;;;;;;;;;;;;;;;15.39;56.43;97927.22;7356693;19;19961;-72
2023/06/14 05:05:25;;;;;;;;;;;;;;;15.37;57.70;97916.75;7368492;19;20529;-68
2023/06/14 05:07:52;;;;;;;;;;;;;;;15.49;57.61;97925.84;7370438;19;19922;-69
2023/06/14 05:10:19;;;;;;;;;;;;;;;15.47;57.02;97933.22;7377683;19;19925;-69
2023/06/14 05:12:47;;;;;;;;;;;;;;;15.51;57.11;97928.31;7363019;19;19926;-70
2023/06/14 05:15:16;;;;;;;;;;;;;;;15.58;56.99;97916.66;7374629;19;19965;-70
2023/06/14 05:17:43;;;;;;;;;;;;;;;15.69;57.46;97920.66;7372801;19;19926;-70
2023/06/14 05:20:10;;;;;;;;;;;;;;;15.82;54.70;97919.03;7370298;19;19927;-70
2023/06/14 05:22:36;;;;;;;;;;;;;;;15.93;55.12;97923.78;7369578;19;19919;-70
2023/06/14 05:25:03;;;;;;;;;;;;;;;15.98;53.72;97926.66;7377589;19;19921;-69
2023/06/14 05:27:30;;;;;;;;;;;;;;;16.16;52.97;97923.44;7379583;19;19914;-69
2023/06/14 05:29:58;;;;;;;;;;;;;;;16.03;51.81;97929.56;7371044;19;19949;-72
2023/06/14 05:32:25;;;;;;;;;;;;;;;16.21;52.38;97927.13;7374673;19;20388;-68
2023/06/14 05:34:52;;;;;;;;;;;;;;;16.51;50.35;97928.59;7375193;19;19922;-70
2023/06/14 05:37:19;;;;;;;;;;;;;;;16.56;55.01;97926.97;7372549;19;20459;-72
2023/06/14 05:39:45;;;;;;;;;;;;;;;16.73;51.18;97935.41;7377715;19;19927;-71
2023/06/14 05:42:13;;;;;;;;;;;;;;;16.65;52.65;97928.41;7375436;19;19922;-70
2023/06/14 05:44:40;;;;;;;;;;;;;;;16.84;51.90;97933.97;7380819;19;19922;-71
2023/06/14 05:47:07;;;;;;;;;;;;;;;16.86;52.72;97938.09;7379402;19;19933;-71
2023/06/14 05:49:34;;;;;;;;;;;;;;;16.91;51.03;97940.16;7381743;19;19923;-69
2023/06/14 05:52:00;;;;;;;;;;;;;;;17.11;50.57;97938.28;7371788;19;19915;-72
2023/06/14 05:54:27;;;;;;;;;;;;;;;17.20;50.76;97936.19;7373937;19;19954;-73
2023/06/14 05:56:54;;;;;;;;;;;;;;;17.46;48.99;97940.66;7378471;19;20541;-71
2023/06/14 05:59:20;;;;;;;;;;;;;;;17.32;49.90;97936.38;7380957;19;20249;-72
2023/06/14 06:01:48;;;;;;;;;;;;;;;17.56;48.63;97937.53;7377341;19;19918;-72
2023/06/14 06:04:15;;;;;;;;;;;;;;;17.81;47.26;97940.34;7374579;19;19919;-71
2023/06/14 06:06:42;;;;;;;;;;;;;;;17.93;49.47;97938.66;7380337;19;19925;-70
2023/06/14 06:09:08;;;;;;;;;;;;;;;18.03;48.03;97937.38;7373049;19;20273;-71
2023/06/14 06:11:35;;;;;;;;;;;;;;;18.21;47.69;97940.16;7372442;19;20319;-71
2023/06/14 06:14:17;;;;;;;;;;;;;;;18.34;49.40;97934.72;7377111;19;19923;-71
2023/06/14 06:16:45;;;;;;;;;;;;;;;18.45;46.52;97932.38;7378577;19;20371;-70
2023/06/14 06:19:12;;;;;;;;;;;;;;;18.74;47.21;97936.28;7376576;19;19962;-71
2023/06/14 06:21:39;;;;;;;;;;;;;;;18.90;43.55;97942.97;7378156;19;19925;-69
2023/06/14 06:24:06;;;;;;;;;;;;;;;19.27;46.93;97944.69;7374927;19;19922;-70
2023/06/14 06:26:33;;;;;;;;;;;;;;;19.78;41.41;97945.38;7375447;19;19922;-70
2023/06/14 06:28:59;;;;;;;;;;;;;;;20.16;44.87;97952.31;7367588;19;19923;-70
2023/06/14 06:31:27;;;;;;;;;;;;;;;20.27;42.26;97943.47;7376501;19;19911;-70
2023/06/14 06:33:54;;;;;;;;;;;;;;;20.41;43.53;97946.00;7378289;19;19923;-70
2023/06/14 06:36:21;;;;;;;;;;;;;;;20.58;43.33;97939.75;7374571;19;19926;-70
2023/06/14 06:38:48;;;;;;;;;;;;;;;20.60;42.26;97944.91;7380473;19;19918;-70
2023/06/14 06:41:14;;;;;;;;;;;;;;;20.39;42.77;97943.53;7370898;19;19948;-71
2023/06/14 06:43:41;;;;;;;;;;;;;;;20.20;40.79;97953.53;7375094;19;20273;-71
2023/06/14 06:46:08;;;;;;;;;;;;;;;20.42;40.64;97955.69;7369611;19;20010;-70
2023/06/14 06:48:35;;;;;;;;;;;;;;;20.15;41.25;97962.25;7379855;19;19921;-70
2023/06/14 06:51:02;;;;;;;;;;;;;;;20.20;42.24;97963.44;7373909;19;19915;-70
2023/06/14 06:53:28;;;;;;;;;;;;;;;20.32;41.45;97956.22;7378149;19;19948;-70
2023/06/14 06:56:07;;;;;;;;;;;;;;;20.34;41.37;97963.03;7373125;19;19929;-71
2023/06/14 06:58:34;;;;;;;;;;;;;;;20.53;40.46;97971.03;7376516;19;20364;-70
2023/06/14 07:01:01;;;;;;;;;;;;;;;20.71;38.91;97968.28;7368822;19;19930;-70
2023/06/14 07:03:28;;;;;;;;;;;;;;;20.29;39.78;97975.50;7373053;19;19926;-70
2023/06/14 07:05:54;;;;;;;;;;;;;;;20.61;39.31;97971.53;7376137;19;19918;-71
2023/06/14 07:08:21;;;;;;;;;;;;;;;20.61;40.88;97984.16;7374637;19;19914;-70
2023/06/14 07:10:48;;;;;;;;;;;;;;;20.66;41.14;97978.91;7373448;19;19937;-70
2023/06/14 07:13:15;;;;;;;;;;;;;;;20.56;40.36;97984.03;7372209;19;19922;-70
2023/06/14 07:15:41;;;;;;;;;;;;;;;20.87;41.43;97979.44;7368929;19;19933;-71
2023/06/14 07:18:08;;;;;;;;;;;;;;;20.99;39.63;97978.41;7369727;19;19938;-70
2023/06/14 07:20:38;;;;;;;;;;;;;;;21.16;38.92;97977.69;7374500;19;20297;-70
2023/06/14 07:23:05;;;;;;;;;;;;;;;21.20;40.17;97981.56;7369099;19;19978;-70
2023/06/14 07:25:32;;;;;;;;;;;;;;;21.15;38.22;97981.44;7373409;19;19926;-70
2023/06/14 07:27:59;;;;;;;;;;;;;;;21.33;39.21;97989.41;7369858;19;19926;-71
2023/06/14 07:30:26;;;;;;;;;;;;;;;21.23;39.75;97989.97;7373466;19;19915;-71
2023/06/14 07:32:54;;;;;;;;;;;;;;;21.44;39.45;97996.69;7371994;19;19915;-70
2023/06/14 07:35:21;;;;;;;;;;;;;;;21.48;38.84;97987.09;7367985;19;19993;-71
2023/06/14 07:37:47;;;;;;;;;;;;;;;21.68;41.07;97997.47;7374713;19;20304;-70
2023/06/14 07:40:14;;;;;;;;;;;;;;;21.74;37.34;98000.28;7373069;19;19940;-70
2023/06/14 07:42:41;;;;;;;;;;;;;;;21.91;36.84;97995.81;7374485;19;20630;-70
2023/06/14 07:45:08;;;;;;;;;;;;;;;22.11;36.42;97998.06;7372289;19;19923;-70
2023/06/14 07:47:35;;;;;;;;;;;;;;;22.28;36.49;97993.59;7378170;19;19978;-71
2023/06/14 07:50:02;;;;;;;;;;;;;;;22.42;36.42;97994.13;7370705;19;19929;-70
2023/06/14 07:52:29;;;;;;;;;;;;;;;22.63;36.58;97981.81;7371890;19;19929;-71
2023/06/14 07:54:56;;;;;;;;;;;;;;;22.60;35.89;97992.28;7373199;19;19926;-71
2023/06/14 07:57:23;;;;;;;;;;;;;;;22.62;36.70;97991.00;7373951;19;19915;-70
2023/06/14 07:59:50;;;;;;;;;;;;;;;23.12;35.95;97992.94;7377194;19;19925;-70
2023/06/14 08:02:16;;;;;;;;;;;;;;;23.18;35.41;97983.84;7372531;19;19924;-71
2023/06/14 08:04:43;;;;;;;;;;;;;;;23.37;34.99;97991.66;7375345;19;19952;-71
2023/06/14 08:07:10;;;;;;;;;;;;;;;23.28;37.67;97987.75;7367992;19;19949;-71
2023/06/14 08:09:40;;;;;;;;;;;;;;;23.43;35.29;97987.97;7371743;19;20005;-71
2023/06/14 08:12:09;;;;;;;;;;;;;;;23.40;35.89;97985.75;7371621;19;20345;-70
2023/06/14 08:14:36;;;;;;;;;;;;;;;23.72;34.96;97993.25;7375353;19;20389;-71
2023/06/14 08:17:03;;;;;;;;;;;;;;;23.70;35.92;97992.66;7372530;19;20253;-71
2023/06/14 08:19:30;;;;;;;;;;;;;;;23.70;37.09;97993.50;7375717;19;19919;-70
2023/06/14 08:21:57;;;;;;;;;;;;;;;23.86;34.34;97991.84;7371213;19;19941;-71
2023/06/14 08:24:29;;;;;;;;;;;;;;;23.67;36.35;97992.09;7365768;19;20600;-68
2023/06/14 08:26:56;;;;;;;;;;;;;;;23.89;34.70;97994.03;7371489;19;20595;-72
2023/06/14 08:29:23;;;;;;;;;;;;;;;23.59;34.37;97992.53;7367766;19;19926;-71
2023/06/14 08:31:50;;;;;;;;;;;;;;;24.01;34.76;97997.44;7371233;19;19922;-71
2023/06/14 08:34:16;;;;;;;;;;;;;;;24.32;33.92;97986.94;7365658;19;19942;-70
2023/06/14 08:36:43;;;;;;;;;;;;;;;24.49;35.00;97992.31;7372788;19;19947;-71
2023/06/14 08:39:10;;;;;;;;;;;;;;;24.70;34.13;97996.03;7368641;19;19922;-69
2023/06/14 08:41:36;;;;;;;;;;;;;;;24.80;33.28;97998.00;7367142;19;19932;-72
2023/06/14 08:44:04;;;;;;;;;;;;;;;24.88;32.63;97995.66;7363278;19;20371;-71
2023/06/14 08:46:32;;;;;;;;;;;;;;;24.74;32.85;97997.94;7372153;19;19946;-69
2023/06/14 08:48:59;;;;;;;;;;;;;;;25.01;31.48;97993.56;7372553;19;19919;-69
2023/06/14 08:51:33;;;;;;;;;;;;;;;24.96;32.19;97997.88;7361237;19;19951;-70
2023/06/14 08:54:01;;;;;;;;;;;;;;;24.96;31.69;97994.34;7368295;19;19922;-71
2023/06/14 08:56:28;;;;;;;;;;;;;;;24.82;31.13;97998.56;7369401;19;19948;-71
2023/06/14 08:58:56;;;;;;;;;;;;;;;25.19;30.62;97996.72;7369145;19;19982;-71
2023/06/14 09:01:23;;;;;;;;;;;;;;;25.15;30.42;97994.78;7363527;19;19915;-69
2023/06/14 09:03:50;;;;;;;;;;;;;;;24.88;33.65;98006.47;7372350;19;19911;-69
2023/06/14 09:06:19;;;;;;;;;;;;;;;25.32;32.97;97995.47;7364178;19;20352;-71
2023/06/14 09:08:46;;;;;;;;;;;;;;;25.53;32.14;97993.69;7372909;19;19923;-70
2023/06/14 09:11:13;;;;;;;;;;;;;;;25.42;32.83;97993.91;7363757;19;19919;-71
2023/06/14 09:13:40;;;;;;;;;;;;;;;25.83;30.42;98000.38;7369190;19;19930;-70
2023/06/14 09:16:07;;;;;;;;;;;;;;;25.70;30.20;97993.53;7363829;19;19930;-70
2023/06/14 09:18:44;;;;;;;;;;;;;;;26.18;30.21;97996.19;7372173;19;19930;-70
2023/06/14 09:21:11;;;;;;;;;;;;;;;26.26;29.75;97999.19;7363776;19;19949;-71
2023/06/14 09:23:38;;;;;;;;;;;;;;;26.46;30.96;98000.31;7373299;19;19919;-69
2023/06/14 09:26:08;;;;;;;;;;;;;;;26.83;28.28;97999.31;7363290;19;19928;-68
2023/06/14 09:28:35;;;;;;;;;;;;;;;26.54;28.51;97999.03;7368200;19;19923;-68
2023/06/14 09:31:02;;;;;;;;;;;;;;;26.80;29.27;97997.97;7367213;19;19959;-69
2023/06/14 09:33:30;;;;;;;;;;;;;;;27.10;27.77;97993.66;7365684;19;19953;-70
2023/06/14 09:35:57;;;;;;;;;;;;;;;26.83;28.22;97993.91;7370204;19;19918;-69
2023/06/14 09:38:24;;;;;;;;;;;;;;;26.80;27.09;97997.16;7367405;19;21933;-68
2023/06/14 09:40:51;;;;;;;;;;;;;;;27.13;27.43;97995.81;7370380;19;19983;-69
2023/06/14 09:43:18;;;;;;;;;;;;;;;27.42;27.13;98003.44;7362133;19;19919;-69
2023/06/14 09:45:46;;;;;;;;;;;;;;;27.48;28.11;97996.88;7371376;19;19922;-69
2023/06/14 09:48:17;;;;;;;;;;;;;;;27.68;25.19;97994.13;7366153;19;20546;-69
2023/06/14 09:50:45;;;;;;;;;;;;;;;27.65;26.61;97997.41;7370237;19;19926;-68
2023/06/14 09:53:12;;;;;;;;;;;;;;;28.00;26.88;97991.03;7368088;19;19926;-70
2023/06/14 09:55:40;;;;;;;;;;;;;;;28.11;26.98;97999.16;7378452;19;20348;-71
2023/06/14 09:58:07;;;;;;;;;;;;;;;28.20;25.67;98000.19;7371644;19;19939;-71
2023/06/14 10:00:35;;;;;;;;;;;;;;;27.89;24.00;97992.19;7372816;19;19923;-70
2023/06/14 10:03:03;;;;;;;;;;;;;;;28.28;25.78;97998.78;7377256;19;20014;-71
2023/06/14 10:05:30;;;;;;;;;;;;;;;28.19;26.98;97993.94;7374058;19;20336;-71
2023/06/14 10:08:00;;;;;;;;;;;;;;;28.59;27.60;97997.56;7378145;19;19923;-70
2023/06/14 10:10:26;;;;;;;;;;;;;;;28.70;23.55;97989.31;7370082;19;19922;-71
2023/06/14 10:12:53;;;;;;;;;;;;;;;28.95;25.31;97991.03;7378371;19;20247;-71
2023/06/14 10:15:26;;;;;;;;;;;;;;;29.17;24.43;97999.59;7371442;19;19919;-71
2023/06/14 10:17:57;;;;;;;;;;;;;;;28.82;23.06;97995.22;7374196;19;19923;-71
2023/06/14 10:20:37;;;;;;;;;;;;;;;28.45;23.50;97994.66;7368414;19;19923;-71
2023/06/14 10:23:10;;;;;;;;;;;;;;;28.14;23.59;97987.72;7374677;19;19993;-71
2023/06/14 10:25:37;;;;;;;;;;;;;;;27.94;26.19;97994.88;7375001;19;19947;-70
2023/06/14 10:28:04;;;;;;;;;;;;;;;28.32;24.38;97983.56;7374954;19;19923;-70
2023/06/14 10:30:30;;;;;;;;;;;;;;;28.28;24.93;97982.47;7370156;19;19926;-71
2023/06/14 10:33:07;;;;;;;;;;;;;;;27.90;25.41;97982.13;7375970;19;19930;-71
2023/06/14 10:35:34;;;;;;;;;;;;;;;27.94;27.32;97973.13;7372789;19;19947;-73
2023/06/14 10:38:07;;;;;;;;;;;;;;;27.15;28.14;97974.66;7372973;19;19948;-72
2023/06/14 10:40:34;;;;;;;;;;;;;;;26.42;28.16;97991.13;7373182;19;19918;-72
2023/06/14 10:43:01;;;;;;;;;;;;;;;25.98;28.53;97986.91;7376211;19;20275;-71
2023/06/14 10:45:28;;;;;;;;;;;;;;;26.05;27.31;97984.75;7369398;19;19923;-71
2023/06/14 10:47:57;;;;;;;;;;;;;;;26.41;28.24;97984.03;7378909;19;19907;-71
2023/06/14 10:50:29;;;;;;;;;;;;;;;26.66;28.62;97984.13;7368713;19;20390;-70
2023/06/14 10:52:56;;;;;;;;;;;;;;;27.11;27.79;97987.94;7376244;19;19943;-70
2023/06/14 10:55:22;;;;;;;;;;;;;;;26.55;27.14;97984.38;7368534;19;19925;-73
2023/06/14 10:57:51;;;;;;;;;;;;;;;26.63;26.30;97987.38;7375376;19;19922;-72
2023/06/14 11:00:22;;;;;;;;;;;;;;;26.71;25.72;97983.31;7371529;19;20309;-70
2023/06/14 11:02:59;;;;;;;;;;;;;;;26.52;27.02;97985.75;7375300;19;19922;-71
2023/06/14 11:05:26;;;;;;;;;;;;;;;25.87;27.42;97979.00;7370880;19;20344;-71
2023/06/14 11:08:12;;;;;;;;;;;;;;;26.18;28.64;97978.03;7369791;19;19934;-71
2023/06/14 11:10:39;;;;;;;;;;;;;;;26.32;26.89;97982.94;7374144;19;20375;-71
2023/06/14 11:13:06;;;;;;;;;;;;;;;26.46;26.07;97984.88;7372261;19;19944;-70
2023/06/14 11:15:33;;;;;;;;;;;;;;;26.46;25.23;97975.91;7370223;19;19922;-73
2023/06/14 11:18:04;;;;;;;;;;;;;;;26.70;24.61;97974.38;7375688;19;19978;-70
2023/06/14 11:20:31;;;;;;;;;;;;;;;26.77;26.23;97974.09;7368320;19;19919;-71
2023/06/14 11:22:58;;;;;;;;;;;;;;;26.91;28.11;97975.19;7375027;19;20313;-70
2023/06/14 11:25:26;;;;;;;;;;;;;;;26.82;25.39;97973.28;7370670;19;19919;-71
2023/06/14 11:27:53;;;;;;;;;;;;;;;26.69;28.62;97974.63;7372690;19;19926;-71
2023/06/14 11:30:19;;;;;;;;;;;;;;;26.39;28.67;97980.81;7372549;19;19914;-72
2023/06/14 11:32:47;;;;;;;;;;;;;;;26.45;28.37;97977.00;7376462;19;19930;-71
2023/06/14 11:35:14;;;;;;;;;;;;;;;26.28;29.44;97977.25;7368842;19;20378;-70
2023/06/14 11:37:41;;;;;;;;;;;;;;;26.66;29.09;97975.19;7374193;19;19929;-71
2023/06/14 11:40:09;;;;;;;;;;;;;;;26.82;26.68;97962.44;7374441;19;19923;-71
2023/06/14 11:42:37;;;;;;;;;;;;;;;26.36;30.35;97971.31;7373413;19;19923;-71
2023/06/14 11:45:05;;;;;;;;;;;;;;;26.10;26.95;97978.56;7371116;19;19990;-70
2023/06/14 11:47:35;;;;;;;;;;;;;;;26.25;28.94;97984.03;7370064;19;19915;-70
2023/06/14 11:50:03;;;;;;;;;;;;;;;26.24;28.04;97976.16;7376968;19;19951;-70
2023/06/14 11:52:30;;;;;;;;;;;;;;;26.36;27.29;97978.63;7369933;19;19914;-70
2023/06/14 11:54:57;;;;;;;;;;;;;;;25.74;28.27;97975.66;7373129;19;19922;-71
2023/06/14 11:57:23;;;;;;;;;;;;;;;25.54;28.34;97973.69;7365743;19;20352;-71
2023/06/14 11:59:50;;;;;;;;;;;;;;;25.14;29.25;97968.75;7372712;19;19923;-71
2023/06/14 12:02:17;;;;;;;;;;;;;;;25.43;30.26;97971.16;7367074;19;20606;-71
2023/06/14 12:04:46;;;;;;;;;;;;;;;25.60;26.71;97966.38;7372011;19;19919;-70
2023/06/14 12:07:17;;;;;;;;;;;;;;;25.82;27.77;97969.72;7372156;19;19939;-72
2023/06/14 12:09:53;;;;;;;;;;;;;;;25.95;30.58;97968.47;7373809;19;19930;-71
2023/06/14 12:12:26;;;;;;;;;;;;;;;26.13;27.25;97967.16;7370412;19;19926;-71
2023/06/14 12:14:53;;;;;;;;;;;;;;;26.44;26.44;97961.84;7369283;19;19926;-71
2023/06/14 12:17:20;;;;;;;;;;;;;;;26.44;27.11;97965.34;7362463;19;20657;-71
2023/06/14 12:19:47;;;;;;;;;;;;;;;26.40;26.61;97966.97;7367104;19;19930;-72
2023/06/14 12:22:13;;;;;;;;;;;;;;;26.55;27.64;97978.97;7373280;19;19919;-71
2023/06/14 12:24:43;;;;;;;;;;;;;;;26.64;27.44;97964.56;7371816;19;19926;-71
2023/06/14 12:27:15;;;;;;;;;;;;;;;26.46;24.72;97959.63;7371153;19;20257;-70
2023/06/14 12:29:45;;;;;;;;;;;;;;;26.31;25.40;97963.16;7370246;19;19948;-70
2023/06/14 12:32:12;;;;;;;;;;;;;;;26.22;26.10;97965.56;7370427;19;19919;-71
2023/06/14 12:34:39;;;;;;;;;;;;;;;26.31;27.46;97962.34;7364121;19;19939;-70
2023/06/14 12:37:06;;;;;;;;;;;;;;;26.38;28.18;97974.53;7367324;19;19947;-71
2023/06/14 12:39:33;;;;;;;;;;;;;;;26.35;29.26;97960.72;7367270;19;21252;-70
2023/06/14 12:41:59;;;;;;;;;;;;;;;26.53;26.27;97962.13;7372105;19;20703;-70
2023/06/14 12:44:26;;;;;;;;;;;;;;;26.65;26.30;97962.69;7369497;19;20336;-70
2023/06/14 12:46:54;;;;;;;;;;;;;;;26.41;27.27;97956.91;7373197;19;19927;-71
2023/06/14 12:49:21;;;;;;;;;;;;;;;26.54;26.30;97963.75;7367608;19;19927;-71
2023/06/14 12:51:48;;;;;;;;;;;;;;;26.65;27.12;97963.50;7368140;19;19927;-70